Time;durP1;ratioP1;P1;durP2;ratioP2;P2;SDS_P1;SDS_P2;PMS_P1;PMS_P2;Temp;Humidity;BMP_temperature;BMP_pressure;BME280_temperature;BME280_humidity;BME280_pressure;Samples;Min_cycle;Max_cycle;Signal;HPM_P1;HPM_P2
2022/11/22 00:00:14;;;;;;;;;;;;;;;16.27;58.02;100146.53;4863791;29;1943;-51
2022/11/22 00:02:39;;;;;;;;;;;;;;;17.47;56.38;100147.81;4869785;29;1239;-50
2022/11/22 00:05:05;;;;;;;;;;;;;;;16.60;57.60;100161.34;4865041;29;1155;-51
2022/11/22 00:07:30;;;;;;;;;;;;;;;16.32;57.64;100168.47;4863061;29;1081;-49
2022/11/22 00:09:56;;;;;;;;;;;;;;;16.12;57.20;100169.41;4863680;29;1037;-49
2022/11/22 00:12:21;;;;;;;;;;;;;;;16.36;58.15;100167.59;4863126;29;1172;-47
2022/11/22 00:14:46;;;;;;;;;;;;;;;17.40;56.57;100159.97;4869964;29;1215;-49
2022/11/22 00:17:12;;;;;;;;;;;;;;;16.53;57.77;100160.88;4866961;29;1168;-50
2022/11/22 00:19:41;;;;;;;;;;;;;;;16.28;57.54;100170.13;4863497;29;1910;-50
2022/11/22 00:22:06;;;;;;;;;;;;;;;16.08;57.31;100164.50;4863732;29;1172;-51
2022/11/22 00:24:31;;;;;;;;;;;;;;;15.95;56.94;100156.09;4863289;29;1158;-51
2022/11/22 00:26:57;;;;;;;;;;;;;;;16.85;57.90;100168.53;4869767;29;1133;-50
2022/11/22 00:29:22;;;;;;;;;;;;;;;16.79;57.53;100175.19;4865088;29;1064;-49
2022/11/22 00:31:48;;;;;;;;;;;;;;;16.30;57.96;100185.22;4863173;29;1105;-52
2022/11/22 00:34:13;;;;;;;;;;;;;;;16.07;57.60;100173.00;4863528;29;1120;-52
2022/11/22 00:36:39;;;;;;;;;;;;;;;15.95;57.15;100176.13;4862737;29;1124;-51
2022/11/22 00:39:04;;;;;;;;;;;;;;;17.15;57.31;100182.25;4870397;29;1911;-51
2022/11/22 00:41:29;;;;;;;;;;;;;;;16.91;57.31;100188.53;4863219;29;1152;-53
2022/11/22 00:43:55;;;;;;;;;;;;;;;16.37;57.89;100190.38;4863555;29;1183;-49
2022/11/22 00:46:20;;;;;;;;;;;;;;;16.11;57.36;100198.78;4862689;29;1172;-49
2022/11/22 00:48:46;;;;;;;;;;;;;;;16.83;57.89;100200.13;4863303;29;1085;-49
2022/11/22 00:51:11;;;;;;;;;;;;;;;17.23;56.72;100187.09;4869234;29;1183;-51
2022/11/22 00:53:37;;;;;;;;;;;;;;;16.48;57.73;100188.34;4863570;29;1171;-51
2022/11/22 00:56:02;;;;;;;;;;;;;;;16.26;57.50;100181.41;4862476;29;1191;-50
2022/11/22 00:58:28;;;;;;;;;;;;;;;16.22;57.89;100180.34;4862809;29;1976;-50
2022/11/22 01:00:53;;;;;;;;;;;;;;;17.50;56.53;100186.53;4863964;29;990;-51
2022/11/22 01:03:19;;;;;;;;;;;;;;;16.65;57.66;100191.50;4870492;29;1136;-48
2022/11/22 01:05:44;;;;;;;;;;;;;;;16.35;57.71;100192.56;4866397;29;1147;-50
2022/11/22 01:08:09;;;;;;;;;;;;;;;16.14;57.29;100189.16;4849579;29;1126;-47
2022/11/22 01:10:35;;;;;;;;;;;;;;;16.37;58.20;100191.19;4866716;29;1124;-50
2022/11/22 01:13:01;;;;;;;;;;;;;;;17.45;56.44;100198.38;4866865;29;1117;-50
2022/11/22 01:15:26;;;;;;;;;;;;;;;16.62;57.59;100218.69;4874020;29;1077;-48
2022/11/22 01:17:51;;;;;;;;;;;;;;;16.26;57.54;100211.56;4866088;29;1140;-51
2022/11/22 01:20:17;;;;;;;;;;;;;;;16.12;57.28;100199.59;4866213;29;1977;-50
2022/11/22 01:22:42;;;;;;;;;;;;;;;15.97;57.03;100204.06;4866517;29;1212;-52
2022/11/22 01:25:08;;;;;;;;;;;;;;;16.84;57.75;100196.28;4866403;29;1179;-51
2022/11/22 01:27:33;;;;;;;;;;;;;;;17.26;56.64;100201.09;4864034;29;1257;-52
2022/11/22 01:29:58;;;;;;;;;;;;;;;16.50;57.82;100194.38;4865967;29;1175;-51
2022/11/22 01:32:24;;;;;;;;;;;;;;;16.23;57.33;100195.69;4865864;29;1159;-52
2022/11/22 01:34:49;;;;;;;;;;;;;;;16.06;57.36;100196.06;4865921;29;1128;-53
2022/11/22 01:37:15;;;;;;;;;;;;;;;16.56;58.11;100191.31;4865785;29;1191;-54
2022/11/22 01:39:40;;;;;;;;;;;;;;;17.06;57.33;100204.84;4870057;29;1964;-53
2022/11/22 01:42:06;;;;;;;;;;;;;;;16.41;57.83;100211.47;4865949;29;1171;-51
2022/11/22 01:44:31;;;;;;;;;;;;;;;16.20;57.31;100212.69;4865733;29;1180;-55
2022/11/22 01:47:23;;;;;;;;;;;;;;;16.06;57.22;100201.53;4865706;29;1187;-49
2022/11/22 01:49:56;;;;;;;;;;;;;;;17.48;56.48;100175.00;4862618;29;1453;-47
2022/11/22 01:52:23;;;;;;;;;;;;;;;16.63;57.64;100170.94;4852291;29;872;-47
2022/11/22 01:54:50;;;;;;;;;;;;;;;16.32;57.62;100172.00;4833739;29;1581;-50
2022/11/22 01:57:16;;;;;;;;;;;;;;;16.11;57.38;100187.00;4848934;29;1199;-50
2022/11/22 01:59:43;;;;;;;;;;;;;;;16.19;57.75;100180.91;4865667;29;1977;-51
2022/11/22 02:02:09;;;;;;;;;;;;;;;17.43;56.41;100178.63;4865493;29;1125;-50
2022/11/22 02:04:34;;;;;;;;;;;;;;;16.59;57.63;100182.50;4850315;29;1261;-50
2022/11/22 02:07:13;;;;;;;;;;;;;;;16.24;57.76;100186.34;4848781;29;1149;-50
2022/11/22 02:09:38;;;;;;;;;;;;;;;16.07;57.29;100175.75;4865544;29;1160;-49
2022/11/22 02:12:04;;;;;;;;;;;;;;;16.24;57.87;100169.88;4849130;29;1243;-51
2022/11/22 02:14:29;;;;;;;;;;;;;;;17.56;56.05;100165.28;4847827;29;1215;-47
2022/11/22 02:16:55;;;;;;;;;;;;;;;16.62;57.62;100167.38;4868566;29;967;-49
2022/11/22 02:19:36;;;;;;;;;;;;;;;16.34;57.37;100196.41;4864727;29;1966;-51
2022/11/22 02:22:05;;;;;;;;;;;;;;;16.11;57.29;100217.97;4848592;29;1160;-50
2022/11/22 02:24:32;;;;;;;;;;;;;;;16.26;57.86;100222.56;4848196;29;1186;-50
2022/11/22 02:26:57;;;;;;;;;;;;;;;17.47;56.27;100217.31;4864696;29;1195;-47
2022/11/22 02:29:22;;;;;;;;;;;;;;;16.56;57.70;100206.94;4852013;29;1125;-50
2022/11/22 02:31:48;;;;;;;;;;;;;;;16.24;57.73;100208.28;4848059;29;1195;-51
2022/11/22 02:34:13;;;;;;;;;;;;;;;16.04;57.14;100210.06;4863560;29;1156;-49
2022/11/22 02:36:43;;;;;;;;;;;;;;;16.26;58.00;100195.13;4853345;29;1176;-52
2022/11/22 02:39:08;;;;;;;;;;;;;;;17.56;56.03;100214.75;4847085;29;1915;-50
2022/11/22 02:41:34;;;;;;;;;;;;;;;16.67;57.44;100224.16;4852303;29;1118;-51
2022/11/22 02:43:59;;;;;;;;;;;;;;;16.27;57.50;100218.72;4864724;29;1408;-50
2022/11/22 02:46:25;;;;;;;;;;;;;;;16.10;57.11;100223.75;4848040;29;1286;-47
2022/11/22 02:48:50;;;;;;;;;;;;;;;16.06;57.46;100212.50;4865449;29;1156;-51
2022/11/22 02:51:18;;;;;;;;;;;;;;;17.47;56.42;100216.50;4864576;29;1112;-50
2022/11/22 02:53:44;;;;;;;;;;;;;;;16.65;57.61;100218.97;4856724;29;1143;-52
2022/11/22 02:56:09;;;;;;;;;;;;;;;16.29;57.31;100221.97;4859134;29;1114;-50
2022/11/22 02:58:35;;;;;;;;;;;;;;;16.11;57.46;100233.63;4864857;29;1911;-50
2022/11/22 03:01:00;;;;;;;;;;;;;;;16.50;58.16;100230.88;4846655;29;1640;-49
2022/11/22 03:03:25;;;;;;;;;;;;;;;17.39;56.31;100238.03;4856243;29;1207;-49
2022/11/22 03:05:51;;;;;;;;;;;;;;;16.54;57.36;100229.19;4855027;29;1231;-48
2022/11/22 03:08:16;;;;;;;;;;;;;;;16.24;57.36;100211.88;4845695;29;1252;-48
2022/11/22 03:10:42;;;;;;;;;;;;;;;16.06;57.27;100213.34;4862415;29;1172;-49
2022/11/22 03:13:07;;;;;;;;;;;;;;;17.02;57.26;100212.03;4855670;29;1152;-50
2022/11/22 03:15:33;;;;;;;;;;;;;;;17.07;56.88;100209.25;4860048;29;1132;-47
2022/11/22 03:17:58;;;;;;;;;;;;;;;16.47;57.61;100216.91;4864086;29;1140;-49
2022/11/22 03:20:24;;;;;;;;;;;;;;;16.19;57.17;100211.06;4863764;29;1911;-49
2022/11/22 03:22:49;;;;;;;;;;;;;;;16.04;57.08;100221.03;4863694;29;1375;-48
2022/11/22 03:25:15;;;;;;;;;;;;;;;16.62;57.83;100236.00;4864119;29;1180;-50
2022/11/22 03:27:40;;;;;;;;;;;;;;;17.25;56.30;100226.09;4863775;29;1160;-50
2022/11/22 03:30:06;;;;;;;;;;;;;;;16.51;57.59;100231.69;4863958;29;1148;-50
2022/11/22 03:32:31;;;;;;;;;;;;;;;16.21;57.37;100225.31;4863544;29;1199;-51
2022/11/22 03:34:57;;;;;;;;;;;;;;;16.08;56.90;100238.56;4863663;29;1152;-49
2022/11/22 03:37:22;;;;;;;;;;;;;;;16.62;57.65;100236.00;4863462;29;1132;-51
2022/11/22 03:39:48;;;;;;;;;;;;;;;17.09;56.88;100239.97;4864233;29;1980;-50
2022/11/22 03:42:13;;;;;;;;;;;;;;;16.39;57.78;100243.03;4864017;29;1116;-50
2022/11/22 03:44:38;;;;;;;;;;;;;;;16.18;57.22;100256.06;4863327;29;1171;-51
2022/11/22 03:47:04;;;;;;;;;;;;;;;16.65;57.88;100251.06;4863606;29;1314;-51
2022/11/22 03:49:29;;;;;;;;;;;;;;;17.11;56.61;100242.47;4864003;29;1149;-50
2022/11/22 03:51:55;;;;;;;;;;;;;;;16.42;57.48;100243.28;4863580;29;1144;-50
2022/11/22 03:54:20;;;;;;;;;;;;;;;16.19;57.22;100239.31;4864161;29;1120;-51
2022/11/22 03:56:45;;;;;;;;;;;;;;;16.04;56.84;100247.63;4863164;29;1152;-50
2022/11/22 03:59:11;;;;;;;;;;;;;;;15.91;56.75;100257.31;4863343;29;1972;-50
2022/11/22 04:01:37;;;;;;;;;;;;;;;16.43;57.80;100261.38;4862446;29;1117;-51
2022/11/22 04:04:02;;;;;;;;;;;;;;;17.33;56.31;100266.66;4863806;29;1251;-51
2022/11/22 04:06:27;;;;;;;;;;;;;;;16.47;57.54;100280.84;4863047;29;1160;-48
2022/11/22 04:08:53;;;;;;;;;;;;;;;16.19;57.48;100287.88;4863697;29;1148;-50
2022/11/22 04:11:18;;;;;;;;;;;;;;;16.00;57.39;100285.75;4863018;29;1156;-54
2022/11/22 04:16:28;;;;;;;;;;;;;;;17.28;56.51;100294.22;4850305;29;1026;-48
2022/11/22 04:18:53;;;;;;;;;;;;;;;16.53;57.79;100298.09;4863510;29;1902;-46
2022/11/22 04:21:34;;;;;;;;;;;;;;;16.21;57.57;100291.16;4863407;29;1207;-45
2022/11/22 04:26:43;;;;;;;;;;;;;;;16.15;57.89;100300.53;4857396;29;977;-52
2022/11/22 04:29:09;;;;;;;;;;;;;;;17.22;56.87;100306.34;4863007;29;1176;-49
2022/11/22 04:34:18;;;;;;;;;;;;;;;16.11;57.72;100299.44;4863115;29;1157;-50
2022/11/22 04:36:43;;;;;;;;;;;;;;;16.02;57.89;100296.44;4861844;29;1152;-52
2022/11/22 04:39:09;;;;;;;;;;;;;;;17.30;56.48;100300.22;4863286;29;1914;-49
2022/11/22 04:41:34;;;;;;;;;;;;;;;16.46;57.87;100292.13;4863074;29;1311;-47
2022/11/22 04:46:44;;;;;;;;;;;;;;;15.96;57.48;100297.59;4862520;29;1211;-50
2022/11/22 04:49:09;;;;;;;;;;;;;;;16.02;57.90;100294.53;4863219;29;1196;-47
2022/11/22 04:54:18;;;;;;;;;;;;;;;16.48;57.67;100298.97;4862121;29;1058;-47
2022/11/22 04:56:44;;;;;;;;;;;;;;;16.36;56.79;100309.47;4862405;29;1343;-48
2022/11/22 04:59:09;;;;;;;;;;;;;;;16.04;56.96;100294.25;4862685;29;1911;-45
2022/11/22 05:01:35;;;;;;;;;;;;;;;16.47;57.68;100302.00;4863187;29;1125;-51
2022/11/22 05:04:00;;;;;;;;;;;;;;;17.34;55.65;100295.00;4862302;29;1132;-48
2022/11/22 05:06:26;;;;;;;;;;;;;;;16.48;57.25;100303.63;4862145;29;1006;-53
2022/11/22 05:08:51;;;;;;;;;;;;;;;16.19;57.24;100304.34;4863149;29;1120;-47
2022/11/22 05:11:17;;;;;;;;;;;;;;;16.04;57.19;100311.53;4863006;29;1152;-47
2022/11/22 05:13:42;;;;;;;;;;;;;;;16.15;57.50;100312.31;4862598;29;1315;-51
2022/11/22 05:16:09;;;;;;;;;;;;;;;17.37;56.04;100308.16;4862211;29;1323;-47
2022/11/22 05:18:34;;;;;;;;;;;;;;;16.47;57.51;100310.22;4862250;29;1926;-51
2022/11/22 05:21:05;;;;;;;;;;;;;;;16.18;57.47;100319.97;4862907;29;1175;-50
2022/11/22 05:26:14;;;;;;;;;;;;;;;15.87;56.79;100324.78;4862184;29;1108;-53
2022/11/22 05:28:40;;;;;;;;;;;;;;;16.92;56.93;100333.00;4861073;29;1205;-51
2022/11/22 05:31:06;;;;;;;;;;;;;;;16.86;56.83;100340.41;4862154;29;1168;-50
2022/11/22 05:33:31;;;;;;;;;;;;;;;16.32;57.52;100335.81;4862914;29;1124;-49
2022/11/22 05:36:00;;;;;;;;;;;;;;;16.07;57.51;100340.31;4862306;29;1124;-48
2022/11/22 05:38:26;;;;;;;;;;;;;;;16.80;57.49;100352.53;4862582;29;1005;-48
2022/11/22 05:40:51;;;;;;;;;;;;;;;16.80;56.84;100358.03;4862282;29;1964;-49
2022/11/22 05:43:17;;;;;;;;;;;;;;;16.28;57.61;100357.50;4862764;29;1133;-49
2022/11/22 05:45:42;;;;;;;;;;;;;;;16.10;57.10;100360.88;4862142;29;1061;-46
2022/11/22 05:48:07;;;;;;;;;;;;;;;16.53;57.76;100370.28;4863696;29;1540;-47
2022/11/22 05:50:34;;;;;;;;;;;;;;;17.18;56.08;100373.97;4866034;29;1479;-49
2022/11/22 05:53:00;;;;;;;;;;;;;;;16.46;57.29;100374.44;4864752;29;1204;-46
2022/11/22 05:55:26;;;;;;;;;;;;;;;16.18;57.06;100379.50;4865780;29;1137;-50
2022/11/22 05:57:51;;;;;;;;;;;;;;;16.42;57.53;100375.00;4865395;29;1176;-45
2022/11/22 06:00:17;;;;;;;;;;;;;;;17.24;55.75;100389.34;4865830;29;1895;-48
2022/11/22 06:02:42;;;;;;;;;;;;;;;16.46;57.28;100390.91;4864908;29;1307;-48
2022/11/22 06:05:08;;;;;;;;;;;;;;;16.21;57.11;100395.41;4865785;29;1112;-49
2022/11/22 06:07:33;;;;;;;;;;;;;;;16.05;57.06;100400.94;4865472;29;1234;-44
2022/11/22 06:09:58;;;;;;;;;;;;;;;16.38;57.32;100406.88;4865683;29;1089;-44
2022/11/22 06:12:24;;;;;;;;;;;;;;;17.20;55.93;100407.50;4865781;29;1227;-48
2022/11/22 06:14:49;;;;;;;;;;;;;;;16.39;57.30;100408.47;4865763;29;1080;-51
2022/11/22 06:17:15;;;;;;;;;;;;;;;16.13;57.25;100410.53;4865142;29;1203;-47
2022/11/22 06:19:41;;;;;;;;;;;;;;;16.01;57.03;100418.25;4865092;29;1887;-50
2022/11/22 06:22:07;;;;;;;;;;;;;;;17.06;56.67;100421.88;4865255;29;1179;-45
2022/11/22 06:24:33;;;;;;;;;;;;;;;16.82;56.73;100415.44;4862300;29;1274;-50
2022/11/22 06:26:59;;;;;;;;;;;;;;;16.31;57.31;100420.03;4863881;29;1591;-49
2022/11/22 06:29:24;;;;;;;;;;;;;;;16.07;57.14;100412.47;4864998;29;1463;-51
2022/11/22 06:31:49;;;;;;;;;;;;;;;17.23;56.11;100426.16;4865798;29;1199;-46
2022/11/22 06:34:15;;;;;;;;;;;;;;;16.49;55.42;100423.28;4865155;29;1136;-47
2022/11/22 06:36:40;;;;;;;;;;;;;;;16.15;53.96;100423.97;4864389;29;1065;-50
2022/11/22 06:39:06;;;;;;;;;;;;;;;15.90;52.54;100431.97;4864879;29;1899;-52
2022/11/22 06:41:32;;;;;;;;;;;;;;;15.88;50.91;100433.34;4863818;29;1536;-48
2022/11/22 06:43:58;;;;;;;;;;;;;;;16.52;53.57;100433.69;4865044;29;1179;-51
2022/11/22 06:46:23;;;;;;;;;;;;;;;16.56;53.76;100443.00;4863610;29;1279;-47
2022/11/22 06:48:49;;;;;;;;;;;;;;;17.87;54.49;100437.97;4863933;29;1390;-52
2022/11/22 06:51:14;;;;;;;;;;;;;;;17.03;54.83;100440.88;4864229;29;1378;-53
2022/11/22 06:53:40;;;;;;;;;;;;;;;16.48;52.99;100449.91;4863856;29;1176;-51
2022/11/22 06:56:06;;;;;;;;;;;;;;;16.54;52.08;100447.97;4864181;29;1201;-50
2022/11/22 06:58:32;;;;;;;;;;;;;;;16.91;53.38;100449.44;4863998;29;1100;-51
2022/11/22 07:01:17;;;;;;;;;;;;;;;16.38;52.45;100456.25;4863705;29;1910;-50
2022/11/22 07:03:42;;;;;;;;;;;;;;;16.26;50.30;100447.50;4854557;29;1133;-52
2022/11/22 07:06:08;;;;;;;;;;;;;;;16.07;49.69;100453.59;4864146;29;1066;-51
2022/11/22 07:08:33;;;;;;;;;;;;;;;16.88;51.14;100447.22;4864197;29;1191;-51
2022/11/22 07:11:09;;;;;;;;;;;;;;;16.36;51.10;100447.47;4847668;29;1066;-47
2022/11/22 07:13:34;;;;;;;;;;;;;;;16.24;49.42;100444.22;4858953;29;1164;-51
2022/11/22 07:16:00;;;;;;;;;;;;;;;16.78;51.05;100448.09;4866314;29;1144;-51
2022/11/22 07:18:26;;;;;;;;;;;;;;;16.24;50.64;100449.69;4845999;29;1489;-46
2022/11/22 07:20:51;;;;;;;;;;;;;;;17.30;52.17;100453.31;4862851;29;2395;-50
2022/11/22 07:23:17;;;;;;;;;;;;;;;16.97;52.49;100453.81;4860110;29;1464;-51
2022/11/22 07:25:46;;;;;;;;;;;;;;;16.49;51.46;100456.22;4855774;29;1195;-52
2022/11/22 07:28:12;;;;;;;;;;;;;;;17.14;51.94;100456.16;4863041;29;1403;-51
2022/11/22 07:30:37;;;;;;;;;;;;;;;16.55;51.24;100455.91;4863062;29;1383;-50
2022/11/22 07:33:03;;;;;;;;;;;;;;;16.34;49.75;100462.56;4862645;29;1231;-49
2022/11/22 07:35:28;;;;;;;;;;;;;;;16.13;49.19;100470.88;4863265;29;1019;-51
2022/11/22 07:37:54;;;;;;;;;;;;;;;16.16;48.01;100470.31;4863588;29;1143;-51
2022/11/22 07:40:19;;;;;;;;;;;;;;;16.06;47.21;100465.66;4855194;29;1974;-48
2022/11/22 07:42:45;;;;;;;;;;;;;;;16.52;49.26;100463.88;4863237;29;1199;-48
2022/11/22 07:45:10;;;;;;;;;;;;;;;16.83;50.55;100464.56;4854851;29;1196;-51
2022/11/22 07:47:36;;;;;;;;;;;;;;;18.03;51.43;100471.66;4863712;29;1149;-53
2022/11/22 07:50:01;;;;;;;;;;;;;;;17.08;52.09;100466.38;4853558;29;1191;-50
2022/11/22 07:52:26;;;;;;;;;;;;;;;16.71;50.77;100475.06;4863416;29;1120;-46
2022/11/22 07:54:52;;;;;;;;;;;;;;;16.46;49.67;100474.06;4860653;29;1116;-50
2022/11/22 07:57:17;;;;;;;;;;;;;;;16.83;50.52;100472.81;4863563;29;1219;-48
2022/11/22 07:59:43;;;;;;;;;;;;;;;16.91;51.52;100485.13;4852823;29;1919;-49
2022/11/22 08:02:10;;;;;;;;;;;;;;;16.57;50.24;100477.59;4862523;29;1264;-49
2022/11/22 08:04:35;;;;;;;;;;;;;;;16.41;48.55;100471.31;4861521;29;1358;-48
2022/11/22 08:07:01;;;;;;;;;;;;;;;16.84;50.35;100473.63;4862861;29;1249;-49
2022/11/22 08:09:26;;;;;;;;;;;;;;;16.59;49.76;100473.47;4863163;29;1211;-45
2022/11/22 08:11:51;;;;;;;;;;;;;;;16.31;48.84;100474.91;4860244;29;1366;-50
2022/11/22 08:14:17;;;;;;;;;;;;;;;17.33;49.97;100474.72;4855332;29;1430;-50
2022/11/22 08:16:42;;;;;;;;;;;;;;;16.55;50.36;100477.03;4862085;29;1351;-47
2022/11/22 08:19:08;;;;;;;;;;;;;;;16.37;49.15;100478.50;4856261;29;1984;-51
2022/11/22 08:21:34;;;;;;;;;;;;;;;17.22;50.28;100487.69;4857511;29;1125;-48
2022/11/22 08:23:59;;;;;;;;;;;;;;;16.56;49.99;100492.41;4845992;29;1312;-50
2022/11/22 08:26:25;;;;;;;;;;;;;;;17.24;50.68;100485.50;4861905;29;1108;-52
2022/11/22 08:28:51;;;;;;;;;;;;;;;17.14;50.98;100482.81;4863182;29;1172;-52
2022/11/22 08:31:18;;;;;;;;;;;;;;;16.58;50.47;100488.28;4862924;29;1093;-49
2022/11/22 08:33:44;;;;;;;;;;;;;;;16.49;48.72;100486.41;4859941;29;1131;-47
2022/11/22 08:36:09;;;;;;;;;;;;;;;17.27;50.19;100487.69;4855473;29;1209;-52
2022/11/22 08:38:35;;;;;;;;;;;;;;;16.77;50.59;100485.75;4861205;29;1179;-51
2022/11/22 08:41:00;;;;;;;;;;;;;;;16.59;49.04;100489.09;4862313;29;1911;-52
2022/11/22 08:43:25;;;;;;;;;;;;;;;17.18;49.96;100489.38;4862462;29;1156;-48
2022/11/22 08:45:58;;;;;;;;;;;;;;;16.59;49.70;100498.16;4856933;29;1255;-51
2022/11/22 08:48:27;;;;;;;;;;;;;;;16.38;49.01;100494.69;4862884;29;1121;-48
2022/11/22 08:50:53;;;;;;;;;;;;;;;17.10;49.41;100488.06;4857281;29;1288;-48
2022/11/22 08:53:19;;;;;;;;;;;;;;;16.75;49.82;100489.88;4862429;29;1129;-49
2022/11/22 08:55:44;;;;;;;;;;;;;;;16.47;48.81;100489.44;4861528;29;1243;-47
2022/11/22 08:58:10;;;;;;;;;;;;;;;17.02;49.63;100485.91;4863292;29;1052;-49
2022/11/22 09:00:35;;;;;;;;;;;;;;;16.64;49.75;100489.09;4859614;29;1968;-48
2022/11/22 09:03:00;;;;;;;;;;;;;;;16.45;48.59;100485.31;4863184;29;1179;-49
2022/11/22 09:05:26;;;;;;;;;;;;;;;17.32;49.46;100479.41;4854179;29;1097;-50
2022/11/22 09:07:51;;;;;;;;;;;;;;;16.66;49.82;100480.56;4862527;29;982;-51
2022/11/22 09:10:17;;;;;;;;;;;;;;;16.52;48.93;100481.19;4861095;29;1175;-48
2022/11/22 09:12:43;;;;;;;;;;;;;;;16.39;48.14;100474.34;4861885;29;1232;-49
2022/11/22 09:15:09;;;;;;;;;;;;;;;16.27;47.61;100473.00;4862451;29;1293;-49
2022/11/22 09:17:35;;;;;;;;;;;;;;;17.04;49.49;100468.06;4862496;29;1124;-47
2022/11/22 09:20:00;;;;;;;;;;;;;;;16.48;49.07;100471.03;4862040;29;1985;-50
2022/11/22 09:22:25;;;;;;;;;;;;;;;16.35;48.47;100481.50;4861913;29;1163;-48
2022/11/22 09:24:51;;;;;;;;;;;;;;;17.07;49.71;100483.16;4865379;29;1184;-50
2022/11/22 09:27:16;;;;;;;;;;;;;;;16.54;49.24;100481.72;4866392;29;1042;-46
2022/11/22 09:29:42;;;;;;;;;;;;;;;16.38;48.60;100478.22;4866408;29;1345;-47
2022/11/22 09:32:10;;;;;;;;;;;;;;;17.24;48.94;100471.75;4865315;29;1006;-46
2022/11/22 09:34:35;;;;;;;;;;;;;;;16.57;49.11;100461.94;4865850;29;1244;-48
2022/11/22 09:37:01;;;;;;;;;;;;;;;16.24;48.91;100463.41;4865169;29;764;-47
2022/11/22 09:39:26;;;;;;;;;;;;;;;17.28;49.21;100470.09;4865282;29;1911;-49
2022/11/22 09:41:52;;;;;;;;;;;;;;;16.76;49.48;100473.09;4865244;29;1200;-50
2022/11/22 09:44:28;;;;;;;;;;;;;;;16.43;48.90;100469.13;4865850;29;1037;-49
2022/11/22 09:46:55;;;;;;;;;;;;;;;17.39;49.16;100463.41;4853987;29;1259;-51
2022/11/22 09:49:33;;;;;;;;;;;;;;;16.66;49.49;100464.94;4851546;29;1164;-50
2022/11/22 09:52:02;;;;;;;;;;;;;;;16.70;49.43;100457.75;4866184;29;1314;-49
2022/11/22 09:54:39;;;;;;;;;;;;;;;16.90;49.93;100447.78;4849805;29;1172;-49
2022/11/22 09:57:07;;;;;;;;;;;;;;;16.58;48.86;100438.06;4849411;29;1449;-48
2022/11/22 09:59:33;;;;;;;;;;;;;;;16.53;47.86;100438.06;4866726;29;1961;-47
2022/11/22 10:02:06;;;;;;;;;;;;;;;17.33;48.95;100420.56;4849582;29;1429;-50
2022/11/22 10:04:34;;;;;;;;;;;;;;;16.67;49.13;100428.13;4866112;29;1101;-49
2022/11/22 10:07:22;;;;;;;;;;;;;;;16.43;48.33;100420.53;4865810;29;1124;-49
2022/11/22 10:09:51;;;;;;;;;;;;;;;16.29;47.72;100429.69;4865601;29;1143;-51
2022/11/22 10:12:32;;;;;;;;;;;;;;;16.18;46.88;100434.38;4863103;29;1022;-49
2022/11/22 10:14:58;;;;;;;;;;;;;;;17.00;48.50;100431.25;4848758;29;1201;-47
2022/11/22 10:17:27;;;;;;;;;;;;;;;16.42;48.82;100440.88;4865467;29;1176;-51
2022/11/22 10:19:57;;;;;;;;;;;;;;;17.58;49.07;100440.72;4841641;29;1974;-52
2022/11/22 10:22:22;;;;;;;;;;;;;;;17.10;49.84;100444.09;4849314;29;1193;-49
2022/11/22 10:24:48;;;;;;;;;;;;;;;16.70;49.30;100445.94;4847715;29;2016;-49
2022/11/22 10:27:13;;;;;;;;;;;;;;;16.48;48.40;100449.06;4864570;29;1021;-50
2022/11/22 10:29:45;;;;;;;;;;;;;;;17.24;49.69;100445.09;4847995;29;1145;-49
2022/11/22 10:32:13;;;;;;;;;;;;;;;16.72;49.05;100444.56;4864956;29;1260;-51
2022/11/22 10:34:41;;;;;;;;;;;;;;;16.52;48.22;100444.66;4863682;29;1044;-50
2022/11/22 10:37:26;;;;;;;;;;;;;;;16.37;47.55;100429.91;4864627;29;1309;-46
2022/11/22 10:40:00;;;;;;;;;;;;;;;16.73;48.30;100450.88;4864814;29;1898;-44
2022/11/22 10:42:44;;;;;;;;;;;;;;;16.63;48.98;100443.50;4848342;29;1431;-46
2022/11/22 10:45:10;;;;;;;;;;;;;;;16.75;49.16;100441.25;4863174;29;1237;-46
2022/11/22 10:47:42;;;;;;;;;;;;;;;17.41;49.31;100438.38;4865350;29;1093;-50
2022/11/22 10:50:13;;;;;;;;;;;;;;;16.79;49.29;100441.53;4848560;29;1267;-47
2022/11/22 10:52:54;;;;;;;;;;;;;;;16.50;48.65;100444.13;4864981;29;1496;-43
2022/11/22 10:55:32;;;;;;;;;;;;;;;16.37;47.87;100440.88;4864854;29;1956;-48
2022/11/22 10:58:07;;;;;;;;;;;;;;;16.20;47.16;100445.88;4848480;29;1106;-47
2022/11/22 11:00:33;;;;;;;;;;;;;;;16.21;46.64;100442.84;4853195;29;1978;-48
2022/11/22 11:03:17;;;;;;;;;;;;;;;16.64;47.63;100439.66;4865015;29;1034;-46
2022/11/22 11:05:42;;;;;;;;;;;;;;;16.41;48.50;100450.19;4859003;29;1533;-47
2022/11/22 11:08:10;;;;;;;;;;;;;;;17.19;49.16;100447.88;4864061;29;1132;-46
2022/11/22 11:10:38;;;;;;;;;;;;;;;17.53;49.68;100447.09;4848438;29;1121;-50
2022/11/22 11:13:05;;;;;;;;;;;;;;;16.79;49.61;100443.44;4864858;29;1101;-49
2022/11/22 11:15:37;;;;;;;;;;;;;;;16.51;48.77;100443.84;4848501;29;983;-47
2022/11/22 11:18:03;;;;;;;;;;;;;;;16.41;48.00;100438.38;4864852;29;1148;-44
2022/11/22 11:20:38;;;;;;;;;;;;;;;16.33;47.16;100436.25;4847806;29;1906;-49
2022/11/22 11:23:03;;;;;;;;;;;;;;;17.18;49.08;100434.44;4836021;29;1109;-49
2022/11/22 11:25:32;;;;;;;;;;;;;;;16.64;49.05;100425.13;4861111;29;1817;-50
2022/11/22 11:28:02;;;;;;;;;;;;;;;16.43;48.24;100423.28;4864232;29;1180;-49
2022/11/22 11:30:27;;;;;;;;;;;;;;;17.04;48.79;100440.56;4864168;29;1308;-51
2022/11/22 11:32:54;;;;;;;;;;;;;;;16.72;49.08;100433.59;4851501;29;963;-50
2022/11/22 11:35:20;;;;;;;;;;;;;;;16.36;48.65;100433.75;4864275;29;1239;-51
2022/11/22 11:37:45;;;;;;;;;;;;;;;16.27;48.07;100435.44;4864192;29;1211;-53
2022/11/22 11:40:27;;;;;;;;;;;;;;;16.80;49.20;100434.09;4847920;29;2009;-50
2022/11/22 11:43:11;;;;;;;;;;;;;;;16.52;48.24;100430.94;4863842;29;1184;-52
2022/11/22 11:45:37;;;;;;;;;;;;;;;17.43;48.71;100447.16;4863816;29;1155;-52
2022/11/22 11:48:02;;;;;;;;;;;;;;;16.66;49.44;100447.63;4864220;29;1275;-53
2022/11/22 11:50:29;;;;;;;;;;;;;;;17.14;49.33;100445.19;4863914;29;1172;-50
2022/11/22 11:52:55;;;;;;;;;;;;;;;17.19;49.82;100436.06;4863780;29;1224;-53
2022/11/22 11:55:21;;;;;;;;;;;;;;;16.76;49.04;100439.34;4861734;29;2188;-53
2022/11/22 11:57:46;;;;;;;;;;;;;;;16.51;48.50;100445.75;4863806;29;1161;-48
2022/11/22 12:00:19;;;;;;;;;;;;;;;16.46;47.62;100445.81;4863269;29;1907;-47
2022/11/22 12:02:50;;;;;;;;;;;;;;;16.23;47.91;100443.41;4864020;29;1144;-48
2022/11/22 12:05:16;;;;;;;;;;;;;;;16.99;48.96;100448.84;4852302;29;1082;-50
2022/11/22 12:07:45;;;;;;;;;;;;;;;16.49;48.75;100450.72;4863349;29;1267;-51
2022/11/22 12:10:25;;;;;;;;;;;;;;;16.34;47.78;100438.72;4863432;29;1046;-49
2022/11/22 12:12:57;;;;;;;;;;;;;;;17.28;48.28;100439.88;4863826;29;1228;-51
2022/11/22 12:15:28;;;;;;;;;;;;;;;16.55;48.91;100435.84;4847494;29;1228;-50
2022/11/22 12:18:13;;;;;;;;;;;;;;;16.30;48.36;100439.53;4847603;29;1164;-48
2022/11/22 12:20:46;;;;;;;;;;;;;;;16.85;48.60;100426.66;4853125;29;1987;-50
2022/11/22 12:23:12;;;;;;;;;;;;;;;16.89;49.17;100426.94;4845330;29;1351;-47
2022/11/22 12:25:37;;;;;;;;;;;;;;;16.53;48.81;100438.06;4863588;29;2079;-50
2022/11/22 12:28:11;;;;;;;;;;;;;;;16.36;47.97;100436.50;4846992;29;1156;-49
2022/11/22 12:30:37;;;;;;;;;;;;;;;17.22;48.39;100433.59;4850264;29;1184;-48
2022/11/22 12:33:02;;;;;;;;;;;;;;;16.54;48.90;100442.47;4853085;29;1155;-49
2022/11/22 12:35:28;;;;;;;;;;;;;;;16.42;47.88;100435.38;4847319;29;1101;-48
2022/11/22 12:37:55;;;;;;;;;;;;;;;17.07;49.11;100434.50;4846824;29;1208;-49
2022/11/22 12:40:23;;;;;;;;;;;;;;;16.52;49.07;100433.69;4846744;29;1986;-51
2022/11/22 12:42:51;;;;;;;;;;;;;;;17.70;48.84;100440.34;4860675;29;1162;-51
2022/11/22 12:45:33;;;;;;;;;;;;;;;17.17;49.68;100433.63;4845574;29;1201;-49
2022/11/22 12:47:59;;;;;;;;;;;;;;;16.63;49.24;100432.53;4839652;29;1184;-48
2022/11/22 12:50:28;;;;;;;;;;;;;;;16.48;48.16;100422.47;4848902;29;1152;-48
2022/11/22 12:52:58;;;;;;;;;;;;;;;16.42;47.40;100421.66;4861884;29;1214;-48
2022/11/22 12:55:24;;;;;;;;;;;;;;;16.19;47.25;100434.09;4845033;29;1363;-46
2022/11/22 12:57:51;;;;;;;;;;;;;;;16.95;47.80;100433.22;4850606;29;1913;-47
2022/11/22 13:00:21;;;;;;;;;;;;;;;16.67;49.07;100430.88;4848915;29;1974;-47
2022/11/22 13:03:08;;;;;;;;;;;;;;;16.47;48.17;100430.97;4865867;29;1085;-46